Time;durP1;ratioP1;P1;durP2;ratioP2;P2;SDS_P1;SDS_P2;PMS_P1;PMS_P2;Temp;Humidity;BMP_temperature;BMP_pressure;BME280_temperature;BME280_humidity;BME280_pressure;Samples;Min_cycle;Max_cycle;Signal;HPM_P1;HPM_P2
2022/06/13 00:00:11;;;;;;;2.27;1.40;;;17.20;99.90;;;;;;5051135;28;20467;-68
2022/06/13 00:02:37;;;;;;;1.50;1.27;;;17.20;99.90;;;;;;5051357;28;20405;-69
2022/06/13 00:05:05;;;;;;;2.03;1.20;;;17.20;99.90;;;;;;5051068;28;20396;-69
2022/06/13 00:07:31;;;;;;;1.50;1.20;;;17.20;99.90;;;;;;5051054;28;20931;-69
2022/06/13 00:09:57;;;;;;;2.70;1.60;;;17.20;99.90;;;;;;5052013;28;20431;-69
2022/06/13 00:12:22;;;;;;;4.53;1.30;;;17.20;99.90;;;;;;5051317;28;20180;-69
2022/06/13 00:14:48;;;;;;;3.40;2.03;;;17.20;99.90;;;;;;5050681;28;20174;-69
2022/06/13 00:17:14;;;;;;;8.77;1.90;;;17.20;99.90;;;;;;5051335;28;20855;-69
2022/06/13 00:19:39;;;;;;;2.53;1.43;;;17.10;99.90;;;;;;5054452;28;20195;-69
2022/06/13 00:22:05;;;;;;;1.90;1.30;;;17.10;99.90;;;;;;5054227;28;20171;-69
2022/06/13 00:24:31;;;;;;;1.50;0.97;;;17.10;99.90;;;;;;5054336;28;20168;-69
2022/06/13 00:26:57;;;;;;;2.80;1.23;;;17.10;99.90;;;;;;5054282;28;20402;-69
2022/06/13 00:29:23;;;;;;;3.97;3.63;;;17.00;99.90;;;;;;5054296;28;20754;-69
2022/06/13 00:31:48;;;;;;;2.30;1.40;;;17.00;99.90;;;;;;5054480;28;20232;-69
2022/06/13 00:34:14;;;;;;;2.87;1.40;;;17.00;99.90;;;;;;5054388;28;20159;-68
2022/06/13 00:36:39;;;;;;;2.40;1.20;;;17.00;99.90;;;;;;5054283;28;20222;-69
2022/06/13 00:39:05;;;;;;;1.30;1.03;;;17.00;99.90;;;;;;5054461;28;20164;-68
2022/06/13 00:41:34;;;;;;;6.10;1.30;;;16.90;99.90;;;;;;5054377;28;20218;-69
2022/06/13 00:44:00;;;;;;;1.93;1.50;;;16.80;99.90;;;;;;5054628;28;20184;-69
2022/06/13 00:46:33;;;;;;;4.03;1.87;;;16.80;99.90;;;;;;5056676;28;20406;-69
2022/06/13 00:49:03;;;;;;;3.20;1.70;;;16.70;99.90;;;;;;5058351;28;20182;-69
2022/06/13 00:51:32;;;;;;;1.10;1.00;;;16.70;99.90;;;;;;5055399;28;20781;-68
2022/06/13 00:53:58;;;;;;;3.13;1.30;;;16.70;99.90;;;;;;5054409;28;20972;-68
2022/06/13 00:56:27;;;;;;;2.60;2.00;;;16.60;99.90;;;;;;5054084;28;20471;-68
2022/06/13 00:58:57;;;;;;;3.43;1.80;;;16.60;99.90;;;;;;5054171;28;20449;-68
2022/06/13 01:01:23;;;;;;;2.57;1.20;;;16.50;99.90;;;;;;5053959;28;20458;-69
2022/06/13 01:03:50;;;;;;;1.27;1.10;;;16.50;99.90;;;;;;5054285;28;20406;-69
2022/06/13 01:06:16;;;;;;;1.93;1.50;;;16.40;99.90;;;;;;5054779;28;20485;-68
2022/06/13 01:08:43;;;;;;;4.80;1.20;;;16.40;99.90;;;;;;5053982;28;20426;-68
2022/06/13 01:11:16;;;;;;;2.03;1.90;;;16.30;99.90;;;;;;5053705;28;20425;-69
2022/06/13 01:14:06;;;;;;;1.13;1.03;;;16.20;99.90;;;;;;5053487;28;20433;-68
2022/06/13 01:16:37;;;;;;;2.10;1.50;;;16.30;99.90;;;;;;5053605;28;20410;-68
2022/06/13 01:19:27;;;;;;;5.03;1.70;;;16.20;99.90;;;;;;5053647;28;20406;-69
2022/06/13 01:22:14;;;;;;;1.83;1.10;;;16.20;99.90;;;;;;5054816;28;20440;-69
2022/06/13 01:25:02;;;;;;;3.20;1.50;;;16.10;99.90;;;;;;5054386;28;20416;-69
2022/06/13 01:27:46;;;;;;;4.00;1.60;;;16.10;99.90;;;;;;5056207;28;20812;-69
2022/06/13 01:30:43;;;;;;;4.87;1.53;;;16.10;99.90;;;;;;5055574;28;20523;-68
2022/06/13 01:33:35;;;;;;;1.70;1.20;;;16.10;99.90;;;;;;5055996;28;20390;-70
2022/06/13 01:36:29;;;;;;;3.80;1.43;;;16.10;99.90;;;;;;5055643;28;20513;-69
2022/06/13 01:39:17;;;;;;;1.87;1.60;;;16.00;99.90;;;;;;5053086;28;20410;-69
2022/06/13 01:42:03;;;;;;;2.80;1.90;;;16.00;99.90;;;;;;5055442;28;20517;-69
2022/06/13 01:45:03;;;;;;;5.73;1.63;;;16.00;99.90;;;;;;5035407;28;20916;-69
2022/06/13 01:47:56;;;;;;;3.63;2.00;;;15.90;99.90;;;;;;5053386;28;20489;-68
2022/06/13 01:50:34;;;;;;;2.67;1.90;;;15.90;99.90;;;;;;5053395;28;20444;-68
2022/06/13 01:53:15;;;;;;;2.10;1.93;;;16.00;99.90;;;;;;5053836;28;20818;-69
2022/06/13 01:55:59;;;;;;;3.57;2.00;;;15.90;99.90;;;;;;5052849;28;20393;-68
2022/06/13 01:58:36;;;;;;;3.60;2.47;;;15.90;99.90;;;;;;5053190;28;20451;-69
2022/06/13 02:01:28;;;;;;;3.30;3.00;;;16.00;99.90;;;;;;5034824;28;20461;-68
2022/06/13 02:04:24;;;;;;;9.70;2.70;;;15.90;99.90;;;;;;5039441;28;20420;-68
2022/06/13 02:07:13;;;;;;;5.87;2.10;;;15.90;99.90;;;;;;5040213;28;20417;-70
2022/06/13 02:09:44;;;;;;;5.17;3.07;;;15.90;99.90;;;;;;5038816;28;20420;-69
2022/06/13 02:12:12;;;;;;;4.00;1.50;;;15.80;99.90;;;;;;5053077;28;20405;-68
2022/06/13 02:14:44;;;;;;;2.73;1.60;;;15.80;99.90;;;;;;5052511;28;20401;-69
2022/06/13 02:17:16;;;;;;;2.50;1.80;;;15.70;99.90;;;;;;5052962;28;20493;-68
2022/06/13 02:19:51;;;;;;;3.97;1.77;;;15.70;99.90;;;;;;5052726;28;20449;-69
2022/06/13 02:22:38;;;;;;;6.70;2.00;;;15.70;99.90;;;;;;5053919;28;20421;-68
2022/06/13 02:25:19;;;;;;;3.20;1.87;;;15.70;99.90;;;;;;5053097;28;20405;-68
2022/06/13 02:28:01;;;;;;;2.57;1.93;;;15.70;99.90;;;;;;5053359;28;20411;-68
2022/06/13 02:30:34;;;;;;;2.03;1.93;;;15.60;99.90;;;;;;5056915;28;20485;-69
2022/06/13 02:33:08;;;;;;;4.07;1.93;;;15.60;99.90;;;;;;5055066;28;20797;-69
2022/06/13 02:35:39;;;;;;;1.77;1.67;;;15.60;99.90;;;;;;5054400;28;20406;-68
2022/06/13 02:38:12;;;;;;;2.80;1.87;;;15.60;99.90;;;;;;5058397;28;20451;-68
2022/06/13 02:40:58;;;;;;;2.60;1.70;;;15.60;99.90;;;;;;5051830;28;20457;-68
2022/06/13 02:43:27;;;;;;;1.97;1.77;;;15.60;99.90;;;;;;5052725;28;20405;-69
2022/06/13 02:46:00;;;;;;;4.80;1.40;;;15.70;99.90;;;;;;5053822;28;20402;-69
2022/06/13 02:49:06;;;;;;;2.33;1.50;;;15.70;99.90;;;;;;5054477;28;20488;-69
2022/06/13 02:51:59;;;;;;;3.13;1.67;;;15.70;99.90;;;;;;5054404;28;20493;-69
2022/06/13 02:54:49;;;;;;;2.30;1.73;;;15.80;99.90;;;;;;5054029;28;20441;-69
2022/06/13 02:57:34;;;;;;;4.13;1.87;;;15.80;99.90;;;;;;5054090;28;20407;-69
2022/06/13 03:00:02;;;;;;;2.40;1.30;;;15.80;99.90;;;;;;5053091;28;20576;-69
2022/06/13 03:02:51;;;;;;;2.90;1.93;;;15.80;99.90;;;;;;5052257;28;20398;-69
2022/06/13 03:05:29;;;;;;;1.77;1.67;;;15.80;99.90;;;;;;5005512;28;20900;-69
2022/06/13 03:08:12;;;;;;;2.97;1.90;;;15.90;99.90;;;;;;5052259;28;20413;-69
2022/06/13 03:11:05;;;;;;;4.30;2.13;;;15.90;99.90;;;;;;5052052;28;20471;-69
2022/06/13 03:13:40;;;;;;;2.30;1.70;;;16.00;99.90;;;;;;5034443;28;20471;-69
2022/06/13 03:16:31;;;;;;;2.40;2.00;;;15.80;99.90;;;;;;5051574;28;20398;-69
2022/06/13 03:19:05;;;;;;;3.93;1.80;;;15.80;99.90;;;;;;5051644;28;20910;-69
2022/06/13 03:21:36;;;;;;;3.53;1.83;;;15.70;99.90;;;;;;5051852;28;20499;-69
2022/06/13 03:24:26;;;;;;;5.20;2.57;;;15.70;99.90;;;;;;5051722;28;20454;-69
2022/06/13 03:26:59;;;;;;;5.87;2.73;;;15.70;99.90;;;;;;5051529;28;20398;-69
2022/06/13 03:29:47;;;;;;;3.47;2.47;;;15.70;99.90;;;;;;5052010;28;20398;-69
2022/06/13 03:32:19;;;;;;;2.73;1.70;;;15.70;99.90;;;;;;5051889;28;20484;-69
2022/06/13 03:34:49;;;;;;;7.00;1.80;;;15.80;99.90;;;;;;5051608;28;20879;-69
2022/06/13 03:37:38;;;;;;;3.20;2.00;;;15.80;99.90;;;;;;5051571;28;20394;-69
2022/06/13 03:40:15;;;;;;;8.83;2.40;;;15.70;99.90;;;;;;5052123;28;20468;-69
2022/06/13 03:42:47;;;;;;;3.60;2.23;;;15.70;99.90;;;;;;5052066;28;20397;-69
2022/06/13 03:45:20;;;;;;;3.07;1.73;;;15.60;99.90;;;;;;5052000;28;20401;-69
2022/06/13 03:47:54;;;;;;;2.27;1.80;;;15.70;99.90;;;;;;5051955;28;20497;-69
2022/06/13 03:50:28;;;;;;;2.10;1.50;;;15.60;99.90;;;;;;5051376;28;20866;-69
2022/06/13 03:53:01;;;;;;;4.13;1.83;;;15.60;99.90;;;;;;5052624;28;20403;-69
2022/06/13 03:55:32;;;;;;;3.60;2.00;;;15.70;99.90;;;;;;5055177;28;20438;-69
2022/06/13 03:58:15;;;;;;;3.00;1.60;;;15.70;99.90;;;;;;5055241;28;20442;-69
2022/06/13 04:00:48;;;;;;;2.40;1.77;;;15.70;99.90;;;;;;5055074;28;20458;-69
2022/06/13 04:03:14;;;;;;;2.23;2.00;;;15.70;99.90;;;;;;5055055;28;20397;-69
2022/06/13 04:05:53;;;;;;;2.30;1.73;;;15.70;99.90;;;;;;5055010;28;20401;-69
2022/06/13 04:08:19;;;;;;;4.40;1.70;;;15.80;99.90;;;;;;5055285;28;20439;-69
2022/06/13 04:11:05;;;;;;;3.47;2.27;;;15.70;99.90;;;;;;5055190;28;20897;-69
2022/06/13 04:14:01;;;;;;;4.93;2.00;;;15.70;99.90;;;;;;5036837;28;20410;-69
2022/06/13 04:16:50;;;;;;;5.07;2.13;;;16.10;99.90;;;;;;5055108;28;20446;-69
2022/06/13 04:19:57;;;;;;;4.23;2.20;;;16.90;99.90;;;;;;5055028;28;20402;-69
2022/06/13 04:22:40;;;;;;;7.37;1.90;;;17.60;99.90;;;;;;4954689;28;20428;-68
2022/06/13 04:25:44;;;;;;;4.03;2.33;;;18.50;99.90;;;;;;5049517;28;20410;-68
2022/06/13 04:28:36;;;;;;;6.87;1.70;;;18.80;99.90;;;;;;5005999;28;20416;-68
2022/06/13 04:31:03;;;;;;;1.60;1.30;;;19.30;99.90;;;;;;5056370;28;20462;-69
2022/06/13 04:33:37;;;;;;;2.37;1.90;;;19.10;99.90;;;;;;5057260;28;20399;-69
2022/06/13 04:36:07;;;;;;;2.80;1.57;;;19.50;99.90;;;;;;5057269;28;20397;-69
2022/06/13 04:38:33;;;;;;;2.13;1.50;;;20.10;99.90;;;;;;5058176;28;20410;-69
2022/06/13 04:41:03;;;;;;;3.47;1.60;;;20.00;99.90;;;;;;5057963;28;20499;-70
2022/06/13 04:43:36;;;;;;;1.50;1.40;;;19.50;99.90;;;;;;5057814;28;20830;-69
2022/06/13 04:46:08;;;;;;;3.97;1.63;;;19.50;99.90;;;;;;5056183;28;20455;-69
2022/06/13 04:48:37;;;;;;;1.90;1.70;;;19.50;99.90;;;;;;5056545;28;20410;-69
2022/06/13 04:51:13;;;;;;;2.40;2.13;;;19.00;99.90;;;;;;5056345;28;20505;-69
2022/06/13 04:53:44;;;;;;;2.10;1.77;;;18.80;99.90;;;;;;5056055;28;20932;-70
2022/06/13 04:56:10;;;;;;;3.70;1.60;;;18.90;99.90;;;;;;5055346;28;20879;-69
2022/06/13 04:58:38;;;;;;;5.53;1.63;;;19.10;99.90;;;;;;5055244;28;20490;-69
2022/06/13 05:01:11;;;;;;;1.70;1.60;;;19.40;99.90;;;;;;5037555;28;20200;-69
2022/06/13 05:03:42;;;;;;;2.67;1.17;;;19.30;99.90;;;;;;5054282;28;20395;-69
2022/06/13 05:06:20;;;;;;;3.50;1.93;;;19.60;99.90;;;;;;5054858;28;20897;-69
2022/06/13 05:08:51;;;;;;;3.10;1.13;;;19.60;99.90;;;;;;5055892;28;20415;-69
2022/06/13 05:11:23;;;;;;;1.90;1.50;;;20.10;99.90;;;;;;5055915;28;20451;-70
2022/06/13 05:13:52;;;;;;;3.30;1.60;;;20.30;99.90;;;;;;5056223;28;20956;-69
2022/06/13 05:16:46;;;;;;;2.23;1.40;;;20.60;99.90;;;;;;5055695;28;20483;-69
2022/06/13 05:19:15;;;;;;;3.10;1.57;;;21.40;99.90;;;;;;5056390;28;20401;-70
2022/06/13 05:21:49;;;;;;;2.30;1.50;;;21.40;99.90;;;;;;5038179;28;20453;-69
2022/06/13 05:24:38;;;;;;;5.13;1.60;;;20.40;99.90;;;;;;5055441;28;20394;-69
2022/06/13 05:27:06;;;;;;;4.03;2.20;;;20.70;99.90;;;;;;5054776;28;20416;-70
2022/06/13 05:29:32;;;;;;;2.90;2.07;;;20.70;99.90;;;;;;5055613;28;20393;-69
2022/06/13 05:31:58;;;;;;;3.63;1.97;;;20.90;99.90;;;;;;5051711;23;20588;-64
2022/06/13 05:34:34;;;;;;;3.90;2.10;;;20.50;99.90;;;;;;5032598;28;20473;-64
2022/06/13 05:37:00;;;;;;;3.53;1.90;;;20.20;99.90;;;;;;5032810;28;20261;-64
2022/06/13 05:39:26;;;;;;;4.10;2.10;;;20.40;99.90;;;;;;5032604;28;20447;-65
2022/06/13 05:41:51;;;;;;;3.20;1.70;;;20.40;99.90;;;;;;5032564;28;20446;-64
2022/06/13 05:44:17;;;;;;;6.50;1.90;;;20.00;99.90;;;;;;5032661;28;20175;-66
2022/06/13 05:46:43;;;;;;;3.87;1.60;;;20.70;99.90;;;;;;5032968;28;20615;-66
2022/06/13 05:49:12;;;;;;;2.60;1.00;;;20.20;99.90;;;;;;5032699;28;20414;-66
2022/06/13 05:51:37;;;;;;;2.30;1.53;;;21.50;99.90;;;;;;5032559;28;20689;-66
2022/06/13 05:54:03;;;;;;;1.93;1.20;;;20.80;99.30;;;;;;5032598;28;20495;-65
2022/06/13 05:56:29;;;;;;;4.30;1.17;;;20.50;99.30;;;;;;5032486;28;20661;-66
2022/06/13 05:58:55;;;;;;;1.30;1.10;;;19.80;99.40;;;;;;5032164;28;20169;-66
2022/06/13 06:01:21;;;;;;;1.43;1.20;;;20.00;99.20;;;;;;5032335;28;20514;-66
2022/06/13 06:03:47;;;;;;;2.40;1.40;;;20.30;99.20;;;;;;5033009;28;20173;-65
2022/06/13 06:06:22;;;;;;;2.10;1.20;;;20.10;98.80;;;;;;5032090;28;20409;-66
2022/06/13 06:08:49;;;;;;;1.60;1.10;;;19.40;99.10;;;;;;5032400;28;20196;-66
2022/06/13 06:11:14;;;;;;;2.73;2.07;;;19.50;98.40;;;;;;5032160;28;20431;-65
2022/06/13 06:13:40;;;;;;;2.73;1.27;;;19.60;98.80;;;;;;5031963;28;20423;-65
2022/06/13 06:16:06;;;;;;;1.27;1.10;;;20.20;96.90;;;;;;5031727;28;20916;-66
2022/06/13 06:18:33;;;;;;;1.77;1.07;;;20.80;96.70;;;;;;5032038;28;20168;-67
2022/06/13 06:20:59;;;;;;;2.57;1.30;;;21.20;94.40;;;;;;5031628;28;20208;-66
2022/06/13 06:23:24;;;;;;;3.70;1.20;;;21.00;94.00;;;;;;5032254;28;20413;-66
2022/06/13 06:25:50;;;;;;;2.70;1.33;;;20.10;95.60;;;;;;5031762;28;20443;-67
2022/06/13 06:28:22;;;;;;;2.40;1.10;;;19.60;95.00;;;;;;5031797;28;20182;-66
2022/06/13 06:30:50;;;;;;;1.90;1.43;;;20.10;94.90;;;;;;5031600;28;20268;-67
2022/06/13 06:33:15;;;;;;;1.17;1.07;;;20.00;94.80;;;;;;5031720;28;20747;-65
2022/06/13 06:35:42;;;;;;;1.93;1.00;;;19.50;95.20;;;;;;5031572;28;20802;-65
2022/06/13 06:38:07;;;;;;;1.40;1.10;;;19.50;94.30;;;;;;5031592;28;20242;-65
2022/06/13 06:40:33;;;;;;;1.47;1.00;;;19.60;94.00;;;;;;5031432;28;20463;-65
2022/06/13 06:42:59;;;;;;;1.97;1.00;;;19.40;93.90;;;;;;5031807;28;20241;-65
2022/06/13 06:45:26;;;;;;;2.40;1.63;;;19.30;94.30;;;;;;5031615;28;20924;-66
2022/06/13 06:47:53;;;;;;;3.33;1.40;;;19.20;94.60;;;;;;5031499;28;20171;-64
2022/06/13 06:50:21;;;;;;;2.63;1.20;;;19.40;94.40;;;;;;5031550;28;20420;-65
2022/06/13 06:52:47;;;;;;;8.70;1.37;;;18.90;94.40;;;;;;5031610;28;20407;-66
2022/06/13 07:00:45;;;;;;;4.93;1.60;;;18.70;95.10;;;;;;5031631;28;20833;-65
2022/06/13 07:03:11;;;;;;;1.27;1.00;;;18.70;95.20;;;;;;5030302;28;20555;-66
2022/06/13 07:05:37;;;;;;;1.33;0.97;;;18.40;95.90;;;;;;5031390;28;20887;-66
2022/06/13 07:08:03;;;;;;;1.83;1.30;;;18.60;96.30;;;;;;5031578;28;20169;-66
2022/06/13 07:10:28;;;;;;;2.17;1.40;;;18.80;96.60;;;;;;5031693;28;20229;-65
2022/06/13 07:12:54;;;;;;;2.33;1.10;;;18.60;96.10;;;;;;5031528;28;20613;-65
2022/06/13 07:15:20;;;;;;;4.20;1.20;;;18.80;95.30;;;;;;5031266;28;20531;-66
2022/06/13 07:17:46;;;;;;;1.87;1.10;;;19.70;94.80;;;;;;5031593;28;20170;-66
2022/06/13 07:20:12;;;;;;;2.80;1.10;;;19.70;94.60;;;;;;5031304;28;20503;-66
2022/06/13 07:22:49;;;;;;;1.30;1.20;;;20.60;93.00;;;;;;5031266;28;20190;-66
2022/06/13 07:25:18;;;;;;;3.03;1.30;;;21.00;92.30;;;;;;5031347;28;20902;-65
2022/06/13 07:27:43;;;;;;;1.27;0.90;;;20.90;90.70;;;;;;5032378;28;20459;-66
2022/06/13 07:30:10;;;;;;;2.40;1.13;;;21.30;91.50;;;;;;5035189;28;20439;-65
2022/06/13 07:32:36;;;;;;;3.00;1.20;;;20.40;91.70;;;;;;5034951;28;20194;-65
2022/06/13 07:35:02;;;;;;;1.53;1.00;;;19.80;89.90;;;;;;5035028;28;20419;-65
2022/06/13 07:40:13;;;;;;;2.67;1.07;;;19.40;90.40;;;;;;5034968;28;20490;-66
2022/06/13 07:42:43;;;;;;;0.80;0.80;;;19.90;90.10;;;;;;5034824;28;20813;-67
2022/06/13 07:45:15;;;;;;;2.40;0.90;;;19.60;90.70;;;;;;5034767;28;20406;-67
2022/06/13 07:47:42;;;;;;;1.40;0.83;;;19.80;90.30;;;;;;5035191;28;20406;-66
2022/06/13 07:50:11;;;;;;;3.80;1.10;;;19.30;91.00;;;;;;5034980;28;20418;-66
2022/06/13 07:52:37;;;;;;;1.53;0.90;;;18.90;91.90;;;;;;5034729;28;20451;-66
2022/06/13 07:55:03;;;;;;;1.37;0.87;;;18.90;92.30;;;;;;5034673;28;20409;-66
2022/06/13 07:57:28;;;;;;;1.53;1.27;;;19.00;92.30;;;;;;5034833;28;20241;-66
2022/06/13 07:59:54;;;;;;;1.50;1.40;;;19.10;92.40;;;;;;5034489;28;20478;-66
2022/06/13 08:02:20;;;;;;;1.47;1.07;;;18.90;92.80;;;;;;5034539;28;20189;-66
2022/06/13 08:04:45;;;;;;;3.37;1.60;;;18.80;93.40;;;;;;5034601;28;20458;-66
2022/06/13 08:07:15;;;;;;;1.40;1.20;;;18.90;92.80;;;;;;5034686;28;20165;-67
2022/06/13 08:09:40;;;;;;;4.00;1.30;;;19.40;92.50;;;;;;5034784;28;20200;-66
2022/06/13 08:12:08;;;;;;;2.43;1.50;;;19.60;92.30;;;;;;5034265;28;20880;-65
2022/06/13 08:14:34;;;;;;;3.03;1.17;;;19.10;92.50;;;;;;5034150;28;20224;-65
2022/06/13 08:16:59;;;;;;;1.20;1.00;;;18.80;95.00;;;;;;5034291;28;20411;-67
2022/06/13 08:19:25;;;;;;;1.47;0.80;;;19.10;95.70;;;;;;5034351;28;20188;-66
2022/06/13 08:21:51;;;;;;;2.40;1.00;;;20.20;93.70;;;;;;5034004;28;20201;-66
2022/06/13 08:24:17;;;;;;;1.10;1.00;;;20.10;92.80;;;;;;5034156;28;20172;-67
2022/06/13 08:26:44;;;;;;;1.10;1.00;;;20.00;92.50;;;;;;5033926;28;20753;-67
2022/06/13 08:29:10;;;;;;;2.40;1.27;;;20.30;90.80;;;;;;5034336;28;20552;-67
2022/06/13 08:31:36;;;;;;;2.17;1.00;;;21.00;90.90;;;;;;5034025;28;20491;-65
2022/06/13 08:34:04;;;;;;;1.57;1.07;;;21.90;91.10;;;;;;5034216;28;20408;-64
2022/06/13 08:36:30;;;;;;;1.70;0.90;;;21.80;90.70;;;;;;5034388;28;20410;-65
2022/06/13 08:38:55;;;;;;;2.33;1.07;;;21.70;88.90;;;;;;5033589;28;20484;-66
2022/06/13 08:41:32;;;;;;;4.33;1.30;;;23.10;86.40;;;;;;5015963;28;21023;-65
2022/06/13 08:44:08;;;;;;;5.63;1.30;;;22.60;82.30;;;;;;5033984;28;20173;-66
2022/06/13 08:47:09;;;;;;;2.60;1.60;;;22.70;83.90;;;;;;5033672;28;20546;-66
2022/06/13 08:49:42;;;;;;;2.10;1.40;;;24.00;81.80;;;;;;5033771;28;20509;-65
2022/06/13 08:52:42;;;;;;;1.40;1.10;;;23.00;79.20;;;;;;5032985;28;20421;-66
2022/06/13 08:55:16;;;;;;;3.73;1.20;;;22.30;81.00;;;;;;5032289;28;20432;-65
2022/06/13 08:57:49;;;;;;;1.40;1.10;;;22.70;81.70;;;;;;5033421;28;20398;-65
2022/06/13 09:00:23;;;;;;;2.77;1.10;;;23.00;79.90;;;;;;5033259;28;20452;-65
2022/06/13 09:02:57;;;;;;;5.37;1.63;;;22.00;80.30;;;;;;5032613;28;20922;-66
2022/06/13 09:05:33;;;;;;;1.50;0.90;;;21.60;84.50;;;;;;5033217;28;20886;-65
2022/06/13 09:08:25;;;;;;;3.53;1.93;;;21.20;84.60;;;;;;5033867;28;20411;-67
2022/06/13 09:11:03;;;;;;;3.03;1.43;;;20.40;83.80;;;;;;5034025;28;20433;-66
2022/06/13 09:13:47;;;;;;;1.67;1.10;;;21.00;85.90;;;;;;5033618;28;20410;-67
2022/06/13 09:16:24;;;;;;;1.77;1.17;;;21.20;85.10;;;;;;5033459;28;20802;-66
2022/06/13 09:18:55;;;;;;;3.10;1.10;;;21.80;86.00;;;;;;5033310;28;20481;-67
2022/06/13 09:21:42;;;;;;;1.67;1.10;;;22.40;84.70;;;;;;5033204;28;20465;-67
2022/06/13 09:24:24;;;;;;;2.70;1.17;;;21.50;85.70;;;;;;5032527;28;20513;-67
2022/06/13 09:27:02;;;;;;;2.73;1.67;;;21.30;86.90;;;;;;5032973;28;20804;-66
2022/06/13 09:29:43;;;;;;;3.17;1.27;;;21.00;87.10;;;;;;5035125;28;20401;-68
2022/06/13 09:32:40;;;;;;;1.27;1.10;;;21.50;88.90;;;;;;5034227;28;21039;-66
2022/06/13 09:35:16;;;;;;;1.43;1.00;;;22.10;87.80;;;;;;4996608;28;20738;-67
2022/06/13 09:37:52;;;;;;;2.43;1.30;;;22.00;86.70;;;;;;5033210;28;20396;-67
2022/06/13 09:40:21;;;;;;;3.20;1.43;;;22.60;84.00;;;;;;5033094;28;20530;-67
2022/06/13 09:42:53;;;;;;;4.10;1.40;;;23.00;83.80;;;;;;5032754;28;20406;-67
2022/06/13 09:45:48;;;;;;;2.67;1.20;;;23.00;81.20;;;;;;5032986;28;20735;-67
2022/06/13 09:48:20;;;;;;;1.97;1.80;;;22.40;78.90;;;;;;5032690;28;20383;-66
2022/06/13 09:50:49;;;;;;;5.40;1.37;;;22.30;77.50;;;;;;5031962;28;20791;-67
2022/06/13 09:53:23;;;;;;;2.70;1.67;;;22.90;75.30;;;;;;5032808;28;20409;-67
2022/06/13 09:56:07;;;;;;;1.20;1.00;;;22.30;78.50;;;;;;5032309;28;20424;-67
2022/06/13 09:59:08;;;;;;;1.30;1.17;;;22.90;77.60;;;;;;5032176;28;20406;-67
2022/06/13 10:01:43;;;;;;;1.40;1.20;;;22.40;77.60;;;;;;5032344;28;20476;-67
2022/06/13 10:04:31;;;;;;;2.80;1.30;;;22.80;78.50;;;;;;5032337;28;20404;-67
2022/06/13 10:07:10;;;;;;;2.17;1.37;;;22.50;79.60;;;;;;5032278;28;20394;-67
2022/06/13 10:09:48;;;;;;;3.33;1.10;;;23.30;77.00;;;;;;5032456;28;20402;-65
2022/06/13 10:12:32;;;;;;;6.83;1.70;;;23.40;77.20;;;;;;5031961;28;20429;-65
2022/06/13 10:15:03;;;;;;;2.20;1.27;;;21.90;78.60;;;;;;5032143;28;20412;-65
2022/06/13 10:17:49;;;;;;;4.17;1.90;;;21.30;78.60;;;;;;5032344;28;20410;-66
2022/06/13 10:20:18;;;;;;;2.80;1.43;;;21.60;79.80;;;;;;5032260;28;20786;-65
2022/06/13 10:23:03;;;;;;;2.13;1.47;;;22.30;79.30;;;;;;5031932;28;20448;-67
2022/06/13 10:25:29;;;;;;;8.63;1.87;;;22.50;78.20;;;;;;5031905;28;20820;-67
2022/06/13 10:28:19;;;;;;;3.13;1.37;;;21.70;81.30;;;;;;5031740;28;20496;-65
2022/06/13 10:31:12;;;;;;;6.00;1.63;;;21.70;81.00;;;;;;5031826;28;20650;-66
2022/06/13 10:33:56;;;;;;;1.43;1.17;;;20.90;82.70;;;;;;5038824;28;20483;-65
2022/06/13 10:36:35;;;;;;;1.20;1.07;;;21.70;83.40;;;;;;5014903;28;20390;-66
2022/06/13 10:39:06;;;;;;;2.07;1.33;;;21.30;79.30;;;;;;5023797;28;20405;-66
2022/06/13 10:41:36;;;;;;;2.23;1.20;;;21.70;78.10;;;;;;5033016;28;20495;-66
2022/06/13 10:44:03;;;;;;;2.37;1.10;;;21.80;76.80;;;;;;5032266;28;20908;-66
2022/06/13 10:46:29;;;;;;;1.00;0.90;;;21.80;78.70;;;;;;5031482;28;20539;-65
2022/06/13 10:49:06;;;;;;;4.13;1.40;;;21.20;80.30;;;;;;5031665;28;20505;-66
2022/06/13 10:51:33;;;;;;;1.83;1.17;;;21.50;78.70;;;;;;5032047;28;20427;-68
2022/06/13 10:54:21;;;;;;;3.07;1.30;;;21.30;78.00;;;;;;5031711;28;20755;-66
2022/06/13 10:57:02;;;;;;;1.97;1.13;;;21.10;79.20;;;;;;5031078;28;20404;-66
2022/06/13 10:59:31;;;;;;;3.67;1.20;;;21.40;77.20;;;;;;5031438;28;20537;-66
2022/06/13 11:02:25;;;;;;;1.17;1.07;;;21.50;75.90;;;;;;5031110;28;20969;-66
2022/06/13 11:05:13;;;;;;;2.57;1.80;;;21.70;75.60;;;;;;5027283;28;20413;-65
2022/06/13 11:07:44;;;;;;;5.80;1.40;;;21.80;75.00;;;;;;5011595;28;20818;-66
2022/06/13 11:10:31;;;;;;;2.97;1.20;;;21.10;75.70;;;;;;5011562;28;20413;-66
2022/06/13 11:12:57;;;;;;;2.10;1.13;;;20.90;76.00;;;;;;5011766;28;20458;-66
2022/06/13 11:24:21;;;;;;;1.40;1.10;;;21.40;75.70;;;;;;5011500;28;20438;-65
2022/06/13 11:29:33;;;;;;;2.17;1.30;;;21.60;74.00;;;;;;5031286;28;20415;-66
2022/06/13 11:32:02;;;;;;;1.73;1.63;;;21.40;73.60;;;;;;5054044;23;20454;-71
2022/06/13 11:34:30;;;;;;;2.10;1.50;;;21.80;74.10;;;;;;5029566;28;20186;-72
2022/06/13 11:37:03;;;;;;;2.90;2.00;;;21.60;71.90;;;;;;5031098;28;20439;-70
2022/06/13 11:39:55;;;;;;;4.20;1.67;;;22.00;74.70;;;;;;5031399;28;20392;-71
2022/06/13 11:42:30;;;;;;;2.77;1.40;;;22.00;69.50;;;;;;5026383;28;20452;-71
2022/06/13 11:44:59;;;;;;;1.00;0.90;;;22.10;71.50;;;;;;5030829;28;20756;-71
2022/06/13 11:47:26;;;;;;;1.67;1.10;;;22.20;72.00;;;;;;5031312;28;20405;-71
2022/06/13 11:49:56;;;;;;;2.50;1.27;;;22.10;73.40;;;;;;5031243;28;20431;-72
2022/06/13 11:55:26;;;;;;;1.47;1.23;;;21.80;72.50;;;;;;5031134;28;20396;-71
2022/06/13 11:58:03;;;;;;;2.67;1.90;;;21.70;75.00;;;;;;5031040;28;20421;-70
2022/06/13 12:00:35;;;;;;;1.83;1.47;;;21.70;73.60;;;;;;5031094;28;20532;-72
2022/06/13 12:03:17;;;;;;;2.00;1.53;;;21.60;74.50;;;;;;5031080;28;20428;-70
2022/06/13 12:05:43;;;;;;;1.37;1.10;;;21.60;75.40;;;;;;5030715;28;20510;-71
2022/06/13 12:08:14;;;;;;;1.73;1.20;;;21.70;73.40;;;;;;5031052;28;20405;-70
2022/06/13 12:10:51;;;;;;;1.40;1.20;;;21.30;74.20;;;;;;5031104;28;20911;-71
2022/06/13 12:13:20;;;;;;;3.23;1.40;;;20.90;74.60;;;;;;5031235;28;20417;-71
2022/06/13 12:15:58;;;;;;;1.60;1.13;;;21.10;74.30;;;;;;5034617;28;20406;-71
2022/06/13 12:18:32;;;;;;;2.70;1.53;;;20.80;77.70;;;;;;5034672;28;20402;-70
2022/06/13 12:21:14;;;;;;;1.83;1.13;;;20.40;81.40;;;;;;5034528;28;20546;-71
2022/06/13 12:24:02;;;;;;;1.77;1.10;;;20.10;83.70;;;;;;5034855;28;20434;-71
2022/06/13 12:26:31;;;;;;;1.43;1.27;;;19.40;86.20;;;;;;5034396;28;20461;-72
2022/06/13 12:29:32;;;;;;;2.03;1.50;;;19.40;87.60;;;;;;5034611;28;20403;-72
2022/06/13 12:32:09;;;;;;;3.53;1.67;;;19.00;88.90;;;;;;5016540;28;20470;-71
2022/06/13 12:34:41;;;;;;;2.73;1.67;;;19.00;89.70;;;;;;5014460;28;20468;-71
2022/06/13 12:37:22;;;;;;;1.17;1.07;;;19.00;90.30;;;;;;5015640;28;20604;-71
2022/06/13 12:40:12;;;;;;;2.83;1.87;;;18.80;90.70;;;;;;5018476;28;20889;-71
2022/06/13 12:43:13;;;;;;;2.77;1.40;;;19.20;90.50;;;;;;5016428;28;20574;-73
2022/06/13 12:46:16;;;;;;;1.37;1.13;;;19.10;90.10;;;;;;5034469;28;20399;-71
2022/06/13 12:49:02;;;;;;;2.00;1.30;;;19.30;88.90;;;;;;5034332;28;20401;-71
2022/06/13 12:51:55;;;;;;;2.50;1.00;;;20.00;88.60;;;;;;5034279;28;20849;-72
2022/06/13 12:54:50;;;;;;;3.67;1.40;;;20.40;82.90;;;;;;5034032;28;20915;-72
2022/06/13 12:57:37;;;;;;;2.00;1.20;;;20.00;81.40;;;;;;5016180;28;20423;-72
2022/06/13 13:00:22;;;;;;;4.60;2.03;;;20.00;80.70;;;;;;5033953;28;20930;-71
2022/06/13 13:03:06;;;;;;;1.97;1.00;;;19.90;80.70;;;;;;5016049;28;20458;-71
2022/06/13 13:05:56;;;;;;;1.97;0.87;;;19.80;79.50;;;;;;5033940;28;20459;-72
2022/06/13 13:09:00;;;;;;;1.10;1.00;;;19.60;81.20;;;;;;5033842;28;20414;-72
2022/06/13 13:11:44;;;;;;;2.20;1.10;;;19.50;81.40;;;;;;5000480;28;20442;-72
2022/06/13 13:14:18;;;;;;;2.40;1.10;;;19.80;81.90;;;;;;5033828;28;20469;-71
2022/06/13 13:17:25;;;;;;;1.43;1.20;;;19.80;82.10;;;;;;5033555;28;20417;-71
2022/06/13 13:20:05;;;;;;;2.40;1.20;;;19.70;83.30;;;;;;4972496;28;20425;-71
2022/06/13 13:22:54;;;;;;;1.47;1.30;;;19.80;87.00;;;;;;5026444;28;20432;-71
2022/06/13 13:25:33;;;;;;;1.20;1.10;;;19.60;90.30;;;;;;5033311;28;20403;-71
2022/06/13 13:28:22;;;;;;;2.43;2.13;;;19.50;91.70;;;;;;5033410;28;20403;-71
2022/06/13 13:30:58;;;;;;;1.47;1.37;;;19.60;92.00;;;;;;5033436;28;20407;-71
2022/06/13 13:33:45;;;;;;;1.20;1.00;;;19.60;91.10;;;;;;5033231;28;21052;-71
2022/06/13 13:36:28;;;;;;;2.57;1.30;;;19.70;91.30;;;;;;5033126;28;20422;-71
2022/06/13 13:39:01;;;;;;;3.80;1.30;;;19.80;91.40;;;;;;5033341;28;20409;-71
2022/06/13 13:41:41;;;;;;;1.33;0.90;;;20.20;90.70;;;;;;5033126;28;20448;-71
2022/06/13 13:44:18;;;;;;;1.10;0.90;;;20.30;88.50;;;;;;5033390;28;20432;-72
2022/06/13 13:46:51;;;;;;;1.30;0.90;;;19.90;89.20;;;;;;5032596;28;20413;-72
2022/06/13 13:49:40;;;;;;;8.03;1.47;;;19.80;88.50;;;;;;5032027;28;20403;-71
2022/06/13 13:52:23;;;;;;;1.80;1.20;;;20.00;87.80;;;;;;5033452;28;20416;-71